createdAt,value
2019-03-21T00:01:32.107Z,59.79
2019-03-21T00:04:34.149Z,60.03
2019-03-21T00:07:36.062Z,59.39
2019-03-21T00:10:41.612Z,59.29
2019-03-21T00:13:44.692Z,58.99
2019-03-21T00:16:46.581Z,59.07
2019-03-21T00:19:48.495Z,59.06
2019-03-21T00:22:50.379Z,58.81
2019-03-21T00:25:52.275Z,58.49
2019-03-21T00:28:54.173Z,58.37
2019-03-21T00:31:56.219Z,58.19
2019-03-21T00:34:58.148Z,58.24
2019-03-21T00:38:01.183Z,58.21
2019-03-21T00:41:03.595Z,58.20
2019-03-21T00:44:05.536Z,58.19
2019-03-21T00:47:07.536Z,57.96
2019-03-21T00:50:22.091Z,57.92
2019-03-21T00:53:24.151Z,57.87
2019-03-21T00:56:26.085Z,57.89
2019-03-21T00:59:27.978Z,57.94
2019-03-21T01:02:29.972Z,58.07
2019-03-21T01:05:31.807Z,58.18
2019-03-21T01:08:33.761Z,58.50
2019-03-21T01:11:35.742Z,58.88
2019-03-21T01:14:37.637Z,59.10
2019-03-21T01:17:39.534Z,59.58
2019-03-21T01:20:41.442Z,59.68
2019-03-21T01:23:44.630Z,59.69
2019-03-21T01:26:46.839Z,59.80
2019-03-21T01:29:48.876Z,59.90
2019-03-21T01:32:50.863Z,59.82
2019-03-21T01:35:52.778Z,59.73
2019-03-21T01:38:54.773Z,59.55
2019-03-21T01:41:57.238Z,59.51
2019-03-21T01:44:59.107Z,59.70
2019-03-21T01:48:01.035Z,59.57
2019-03-21T01:51:02.960Z,59.42
2019-03-21T01:54:04.855Z,59.48
2019-03-21T01:57:06.819Z,59.42
2019-03-21T02:00:12.302Z,59.22
2019-03-21T02:03:14.259Z,58.97
2019-03-21T02:06:16.158Z,58.77
2019-03-21T02:09:18.121Z,58.58
2019-03-21T02:12:21.282Z,58.70
2019-03-21T02:15:25.009Z,58.80
2019-03-21T02:18:26.995Z,58.84
2019-03-21T02:21:28.918Z,58.80
2019-03-21T02:24:30.774Z,58.65
2019-03-21T02:27:32.644Z,58.58
2019-03-21T02:30:42.334Z,58.72
2019-03-21T02:33:44.257Z,58.85
2019-03-21T02:36:46.398Z,58.83
2019-03-21T02:39:58.920Z,58.84
2019-03-21T02:42:52.360Z,58.29
2019-03-21T02:45:54.197Z,58.17
2019-03-21T02:48:56.023Z,58.13
2019-03-21T02:51:57.947Z,58.08
2019-03-21T02:54:59.905Z,58.04
2019-03-21T02:58:01.848Z,57.88
2019-03-21T03:01:03.779Z,58.04
2019-03-21T03:04:05.679Z,58.04
2019-03-21T03:07:07.533Z,58.31
2019-03-21T03:10:13.060Z,58.54
2019-03-21T03:13:14.928Z,58.53
2019-03-21T03:16:17.302Z,58.80
2019-03-21T03:19:19.342Z,58.82
2019-03-21T03:22:21.254Z,58.85
2019-03-21T03:25:23.090Z,58.86
2019-03-21T03:28:30.554Z,59.07
2019-03-21T03:31:32.530Z,59.08
2019-03-21T03:34:34.464Z,59.26
2019-03-21T03:37:36.354Z,59.55
2019-03-21T03:41:00.222Z,59.21
2019-03-21T03:44:02.184Z,59.26
2019-03-21T03:47:04.100Z,59.48
2019-03-21T03:50:09.270Z,59.14
2019-03-21T03:53:11.167Z,59.05
2019-03-21T03:56:13.106Z,58.74
2019-03-21T03:59:15.045Z,58.57
2019-03-21T04:02:16.971Z,58.58
2019-03-21T04:05:19.498Z,58.53
2019-03-21T04:08:21.425Z,58.49
2019-03-21T04:11:23.301Z,58.25
2019-03-21T04:14:25.184Z,58.32
2019-03-21T04:17:27.147Z,58.19
2019-03-21T04:20:35.795Z,58.09
2019-03-21T04:23:37.750Z,58.06
2019-03-21T04:26:39.715Z,58.08
2019-03-21T04:29:41.698Z,58.02
2019-03-21T04:32:44.154Z,57.99
2019-03-21T04:35:46.469Z,57.97
2019-03-21T04:38:49.751Z,58.02
2019-03-21T04:41:51.739Z,57.86
2019-03-21T04:44:53.742Z,58.15
2019-03-21T04:47:55.590Z,58.25
2019-03-21T04:50:57.479Z,58.46
2019-03-21T04:53:59.355Z,58.41
2019-03-21T04:57:01.293Z,58.24
2019-03-21T05:00:09.805Z,58.12
2019-03-21T05:03:21.477Z,58.25
2019-03-21T05:06:23.351Z,58.29
2019-03-21T05:09:25.263Z,58.20
2019-03-21T05:12:27.107Z,58.25
2019-03-21T05:15:35.200Z,58.20
2019-03-21T05:18:46.757Z,58.19
2019-03-21T05:21:48.754Z,58.23
2019-03-21T05:24:50.661Z,58.12
2019-03-21T05:27:52.663Z,58.01
2019-03-21T05:31:09.943Z,57.87
2019-03-21T05:34:11.923Z,57.81
2019-03-21T05:37:13.858Z,57.65
2019-03-21T05:40:18.295Z,57.58
2019-03-21T05:43:36.013Z,57.68
2019-03-21T05:46:37.948Z,57.02
2019-03-21T05:49:39.834Z,56.56
2019-03-21T05:52:41.843Z,56.39
2019-03-21T05:55:44.037Z,56.40
2019-03-21T05:58:46.163Z,56.42
2019-03-21T06:01:48.152Z,56.37
2019-03-21T06:04:50.114Z,55.97
2019-03-21T06:08:07.400Z,55.40
2019-03-21T06:11:09.641Z,55.09
2019-03-21T06:14:11.541Z,54.08
2019-03-21T06:17:13.490Z,53.64
2019-03-21T06:20:30.967Z,53.43
2019-03-21T06:23:48.363Z,53.24
2019-03-21T06:26:53.926Z,53.24
2019-03-21T06:29:55.868Z,53.06
2019-03-21T06:32:57.853Z,52.97
2019-03-21T06:36:00.054Z,52.95
2019-03-21T06:39:01.932Z,52.82
2019-03-21T06:42:06.336Z,53.00
2019-03-21T06:45:08.508Z,53.01
2019-03-21T06:48:10.440Z,52.72
2019-03-21T06:51:12.490Z,52.59
2019-03-21T06:54:14.440Z,52.32
2019-03-21T06:57:16.432Z,52.03
2019-03-21T07:00:18.305Z,51.73
2019-03-21T07:03:20.254Z,50.76
2019-03-21T07:06:22.146Z,50.98
2019-03-21T07:09:24.111Z,50.67
2019-03-21T07:12:26.009Z,50.45
2019-03-21T07:15:28.007Z,50.11
2019-03-21T07:18:29.874Z,50.02
2019-03-21T07:21:31.878Z,49.83
2019-03-21T07:24:34.835Z,49.74
2019-03-21T07:27:36.714Z,49.57
2019-03-21T07:30:38.610Z,49.54
2019-03-21T07:33:40.543Z,49.57
2019-03-21T07:36:42.417Z,49.05
2019-03-21T07:39:44.295Z,48.89
2019-03-21T07:42:46.299Z,48.48
2019-03-21T07:45:48.354Z,48.81
2019-03-21T07:48:50.282Z,48.46
2019-03-21T07:51:52.232Z,48.24
2019-03-21T07:54:54.148Z,48.10
2019-03-21T07:57:56.141Z,47.63
2019-03-21T08:00:58.068Z,47.49
2019-03-21T08:04:02.755Z,47.30
2019-03-21T08:07:03.897Z,47.29
2019-03-21T08:10:09.220Z,46.85
2019-03-21T08:13:11.179Z,46.45
2019-03-21T08:16:13.064Z,46.28
2019-03-21T08:19:14.970Z,46.26
2019-03-21T08:22:16.810Z,46.28
2019-03-21T08:25:18.741Z,46.01
2019-03-21T08:28:20.741Z,46.08
2019-03-21T08:31:22.668Z,46.08
2019-03-21T08:34:24.700Z,45.94
2019-03-21T08:37:26.752Z,45.83
2019-03-21T08:40:28.830Z,45.63
2019-03-21T08:43:30.880Z,45.63
2019-03-21T08:46:32.939Z,45.67
2019-03-21T08:49:34.858Z,45.70
2019-03-21T08:52:36.826Z,45.50
2019-03-21T08:55:38.737Z,45.35
2019-03-21T08:58:40.686Z,45.54
2019-03-21T09:01:42.569Z,45.46
2019-03-21T09:04:44.550Z,45.49
2019-03-21T09:07:46.567Z,45.70
2019-03-21T09:10:48.636Z,45.35
2019-03-21T09:13:50.602Z,45.24
2019-03-21T09:16:52.544Z,45.40
2019-03-21T09:19:54.468Z,45.06
2019-03-21T09:22:57.495Z,45.22
2019-03-21T09:25:59.376Z,45.38
2019-03-21T09:29:01.304Z,45.35
2019-03-21T09:32:03.166Z,45.20
2019-03-21T09:35:06.220Z,45.25
2019-03-21T09:38:08.111Z,45.17
2019-03-21T09:41:10.060Z,45.39
2019-03-21T09:44:12.423Z,45.44
2019-03-21T09:47:14.394Z,45.25
2019-03-21T09:50:28.029Z,45.12
2019-03-21T09:53:29.962Z,45.24
2019-03-21T09:56:31.873Z,45.08
2019-03-21T09:59:33.736Z,45.19
2019-03-21T10:02:35.602Z,45.30
2019-03-21T10:05:37.554Z,45.05
2019-03-21T10:08:39.491Z,45.15
2019-03-21T10:11:41.424Z,45.25
2019-03-21T10:14:43.851Z,45.45
2019-03-21T10:17:45.742Z,45.33
2019-03-21T10:20:47.716Z,45.18
2019-03-21T10:23:49.623Z,45.35
2019-03-21T10:26:51.493Z,45.21
2019-03-21T10:29:53.423Z,44.76
2019-03-21T10:32:55.328Z,44.72
2019-03-21T10:35:57.282Z,45.14
2019-03-21T10:38:59.162Z,44.88
2019-03-21T10:42:01.069Z,44.31
2019-03-21T10:45:05.764Z,43.78
2019-03-21T10:48:08.766Z,44.20
2019-03-21T10:51:10.711Z,43.82
2019-03-21T10:54:12.701Z,43.21
2019-03-21T10:57:14.627Z,42.87
2019-03-21T11:00:16.795Z,42.72
2019-03-21T11:03:18.757Z,42.48
2019-03-21T11:06:21.776Z,42.33
2019-03-21T11:09:23.788Z,42.19
2019-03-21T11:12:25.700Z,42.11
2019-03-21T11:15:27.619Z,42.02
2019-03-21T11:18:36.000Z,41.98
2019-03-21T11:21:33.463Z,42.03
2019-03-21T11:24:35.742Z,42.31
2019-03-21T11:27:37.685Z,42.50
2019-03-21T11:30:41.015Z,42.31
2019-03-21T11:33:42.949Z,42.40
2019-03-21T11:36:44.997Z,42.61
2019-03-21T11:39:46.939Z,43.10
2019-03-21T11:42:48.913Z,43.26
2019-03-21T11:45:51.307Z,43.08
2019-03-21T11:48:53.347Z,43.11
2019-03-21T11:51:55.231Z,43.30
2019-03-21T11:54:57.192Z,43.38
2019-03-21T11:57:59.108Z,43.61
2019-03-21T12:01:00.991Z,43.80
2019-03-21T12:04:03.075Z,43.47
2019-03-21T12:07:05.181Z,43.63
2019-03-21T12:10:10.013Z,43.81
2019-03-21T12:13:11.972Z,43.36
2019-03-21T12:16:13.896Z,43.88
2019-03-21T12:19:15.822Z,44.05
2019-03-21T12:22:29.163Z,44.19
2019-03-21T12:25:21.557Z,44.35
2019-03-21T12:28:23.478Z,44.10
2019-03-21T12:31:25.802Z,44.28
2019-03-21T12:34:27.791Z,44.43
2019-03-21T12:37:29.859Z,44.31
2019-03-21T12:40:32.019Z,44.53
2019-03-21T12:43:33.885Z,44.88
2019-03-21T12:46:35.767Z,44.32
2019-03-21T12:49:37.736Z,43.67
2019-03-21T12:53:37.217Z,43.97
2019-03-21T12:55:43.465Z,43.88
2019-03-21T12:58:45.759Z,43.85
2019-03-21T13:01:47.657Z,43.63
2019-03-21T13:04:49.587Z,43.43
2019-03-21T13:07:51.509Z,43.05
2019-03-21T13:10:53.466Z,42.52
2019-03-21T13:13:55.451Z,42.85
2019-03-21T13:16:57.335Z,42.79
2019-03-21T13:19:59.329Z,42.72
2019-03-21T13:23:01.273Z,42.94
2019-03-21T13:26:03.222Z,43.28
2019-03-21T13:29:05.141Z,42.94
2019-03-21T13:32:07.189Z,42.42
2019-03-21T13:35:09.377Z,42.31
2019-03-21T13:38:11.417Z,42.54
2019-03-21T13:41:13.378Z,42.63
2019-03-21T13:44:16.003Z,42.74
2019-03-21T13:47:17.914Z,43.07
2019-03-21T13:50:19.950Z,42.68
2019-03-21T13:53:22.010Z,42.60
2019-03-21T13:56:24.020Z,42.85
2019-03-21T13:59:27.137Z,42.34
2019-03-21T14:02:29.181Z,41.81
2019-03-21T14:05:31.079Z,41.63
2019-03-21T14:08:33.079Z,41.77
2019-03-21T14:11:36.121Z,41.38
2019-03-21T14:14:38.050Z,41.03
2019-03-21T14:17:40.003Z,41.03
2019-03-21T14:20:41.942Z,40.88
2019-03-21T14:23:43.929Z,41.47
2019-03-21T14:26:45.918Z,41.31
2019-03-21T14:29:47.780Z,41.19
2019-03-21T14:32:49.715Z,41.23
2019-03-21T14:35:51.736Z,40.76
2019-03-21T14:38:53.706Z,41.10
2019-03-21T14:41:55.625Z,41.36
2019-03-21T14:44:57.581Z,41.24
2019-03-21T14:47:59.482Z,41.07
2019-03-21T14:51:01.490Z,40.79
2019-03-21T14:54:03.379Z,41.29
2019-03-21T14:57:05.298Z,41.32
2019-03-21T15:00:13.845Z,41.21
2019-03-21T15:03:15.800Z,41.16
2019-03-21T15:06:17.708Z,41.33
2019-03-21T15:09:19.718Z,41.70
2019-03-21T15:12:21.615Z,41.83
2019-03-21T15:15:23.624Z,41.77
2019-03-21T15:18:25.588Z,41.67
2019-03-21T15:21:27.489Z,41.84
2019-03-21T15:24:29.443Z,41.95
2019-03-21T15:27:31.412Z,42.39
2019-03-21T15:30:33.366Z,42.42
2019-03-21T15:33:35.340Z,42.58
2019-03-21T15:36:38.474Z,42.67
2019-03-21T15:39:41.303Z,42.82
2019-03-21T15:42:43.181Z,42.92
2019-03-21T15:45:45.082Z,43.16
2019-03-21T15:48:46.971Z,43.09
2019-03-21T15:51:49.030Z,43.09
2019-03-21T15:54:51.029Z,43.67
2019-03-21T15:57:52.999Z,43.86
2019-03-21T16:00:54.894Z,43.76
2019-03-21T16:03:57.453Z,43.93
2019-03-21T16:06:59.561Z,44.01
2019-03-21T16:10:01.742Z,44.14
2019-03-21T16:13:04.068Z,44.17
2019-03-21T16:16:06.201Z,44.28
2019-03-21T16:19:08.598Z,44.49
2019-03-21T16:22:10.477Z,44.83
2019-03-21T16:25:12.377Z,45.11
2019-03-21T16:28:14.706Z,45.27
2019-03-21T16:31:16.724Z,45.33
2019-03-21T16:34:18.640Z,45.57
2019-03-21T16:37:20.543Z,45.71
2019-03-21T16:40:22.606Z,45.93
2019-03-21T16:43:24.565Z,46.08
2019-03-21T16:46:27.433Z,46.28
2019-03-21T16:49:29.375Z,46.39
2019-03-21T16:52:31.351Z,46.46
2019-03-21T16:55:33.367Z,46.66
2019-03-21T16:58:35.553Z,46.88
2019-03-21T17:01:37.693Z,47.09
2019-03-21T17:04:39.994Z,47.48
2019-03-21T17:07:41.912Z,47.72
2019-03-21T17:10:43.942Z,47.88
2019-03-21T17:13:45.973Z,48.08
2019-03-21T17:16:48.633Z,48.27
2019-03-21T17:19:50.537Z,48.43
2019-03-21T17:22:52.552Z,48.62
2019-03-21T17:25:54.519Z,48.77
2019-03-21T17:28:58.144Z,48.98
2019-03-21T17:32:00.076Z,49.14
2019-03-21T17:35:02.750Z,49.33
2019-03-21T17:38:04.622Z,49.68
2019-03-21T17:41:06.636Z,49.85
2019-03-21T17:44:10.300Z,50.30
2019-03-21T17:47:12.229Z,50.73
2019-03-21T17:50:15.572Z,51.14
2019-03-21T17:53:17.654Z,51.35
2019-03-21T17:56:19.635Z,51.81
2019-03-21T17:59:21.549Z,52.21
2019-03-21T18:02:23.503Z,52.31
2019-03-21T18:05:27.276Z,52.46
2019-03-21T18:08:29.462Z,52.62
2019-03-21T18:11:34.793Z,52.73
2019-03-21T18:14:37.054Z,52.99
2019-03-21T18:17:39.061Z,53.04
2019-03-21T18:20:41.395Z,53.28
2019-03-21T18:23:43.351Z,53.50
2019-03-21T18:26:45.596Z,53.59
2019-03-21T18:29:47.509Z,53.72
2019-03-21T18:32:53.361Z,53.74
2019-03-21T18:35:55.299Z,54.10
2019-03-21T18:38:59.966Z,54.40
2019-03-21T18:42:03.812Z,54.73
2019-03-21T18:45:11.625Z,54.78
2019-03-21T18:48:13.535Z,54.67
2019-03-21T18:51:16.668Z,54.77
2019-03-21T18:54:18.815Z,54.94
2019-03-21T18:57:20.765Z,55.09
2019-03-21T19:00:23.777Z,55.49
2019-03-21T19:03:25.967Z,55.51
2019-03-21T19:06:28.483Z,55.44
2019-03-21T19:09:30.435Z,55.68
2019-03-21T19:12:37.787Z,55.82
2019-03-21T19:15:41.179Z,56.07
2019-03-21T19:18:43.223Z,56.32
2019-03-21T19:21:45.660Z,56.49
2019-03-21T19:24:47.659Z,56.66
2019-03-21T19:27:49.824Z,56.78
2019-03-21T19:30:51.724Z,57.06
2019-03-21T19:33:54.771Z,57.36
2019-03-21T19:36:59.649Z,57.32
2019-03-21T19:40:04.148Z,57.30
2019-03-21T19:43:06.350Z,57.44
2019-03-21T19:46:08.343Z,57.72
2019-03-21T19:49:10.675Z,57.89
2019-03-21T19:52:15.872Z,58.34
2019-03-21T19:55:30.337Z,58.59
2019-03-21T19:58:24.393Z,58.58
2019-03-21T20:01:27.634Z,59.09
2019-03-21T20:04:29.572Z,59.12
2019-03-21T20:07:33.600Z,59.27
2019-03-21T20:10:35.988Z,59.63
2019-03-21T20:13:39.191Z,59.88
2019-03-21T20:16:41.132Z,59.93
2019-03-21T20:19:43.403Z,59.92
2019-03-21T20:22:45.562Z,60.01
2019-03-21T20:25:49.175Z,60.09
2019-03-21T20:28:51.091Z,60.05
2019-03-21T20:31:53.690Z,60.05
2019-03-21T20:34:57.515Z,59.96
2019-03-21T20:38:03.438Z,60.23
2019-03-21T20:41:05.657Z,60.24
2019-03-21T20:44:15.056Z,60.25
2019-03-21T20:47:12.044Z,60.57
2019-03-21T20:50:14.232Z,60.75
2019-03-21T20:53:16.138Z,60.83
2019-03-21T20:56:18.407Z,60.82
2019-03-21T20:59:20.302Z,60.86
2019-03-21T21:02:22.211Z,60.82
2019-03-21T21:05:24.406Z,60.80
2019-03-21T21:08:27.321Z,61.09
2019-03-21T21:11:29.339Z,61.39
2019-03-21T21:14:31.239Z,61.42
2019-03-21T21:17:34.352Z,61.40
2019-03-21T21:20:36.261Z,61.38
2019-03-21T21:23:40.119Z,61.53
2019-03-21T21:26:43.426Z,61.17
2019-03-21T21:29:45.427Z,61.36
2019-03-21T21:32:47.350Z,61.81
2019-03-21T21:35:49.298Z,61.85
2019-03-21T21:38:51.193Z,61.51
2019-03-21T21:41:53.102Z,61.64
2019-03-21T21:44:55.051Z,61.38
2019-03-21T21:47:57.013Z,61.88
2019-03-21T21:50:59.226Z,62.15
2019-03-21T21:54:01.175Z,62.41
2019-03-21T21:57:03.177Z,63.49
2019-03-21T22:00:11.144Z,63.92
2019-03-21T22:03:13.045Z,63.23
2019-03-21T22:06:14.907Z,62.94
2019-03-21T22:09:16.870Z,62.99
2019-03-21T22:12:18.795Z,62.87
2019-03-21T22:15:20.663Z,62.79
2019-03-21T22:18:22.616Z,63.12
2019-03-21T22:21:24.495Z,63.31
2019-03-21T22:24:26.425Z,62.84
2019-03-21T22:27:28.343Z,62.65
2019-03-21T22:30:30.274Z,63.08
2019-03-21T22:33:32.195Z,63.39
2019-03-21T22:36:34.060Z,63.36
2019-03-21T22:39:35.963Z,63.45
2019-03-21T22:42:37.925Z,63.29
2019-03-21T22:45:39.812Z,63.38
2019-03-21T22:48:41.713Z,63.19
2019-03-21T22:51:43.668Z,63.06
2019-03-21T22:54:46.841Z,63.78
2019-03-21T22:57:49.170Z,63.51
2019-03-21T23:00:52.542Z,63.50
2019-03-21T23:03:54.657Z,63.57
2019-03-21T23:06:56.629Z,63.95
2019-03-21T23:09:58.481Z,64.46
2019-03-21T23:13:01.127Z,64.52
2019-03-21T23:16:03.158Z,64.95
2019-03-21T23:19:05.093Z,64.82
2019-03-21T23:22:06.994Z,65.24
2019-03-21T23:25:10.127Z,65.55
2019-03-21T23:28:11.983Z,65.37
2019-03-21T23:31:13.883Z,65.00
2019-03-21T23:34:15.905Z,64.86
2019-03-21T23:37:17.833Z,65.09
2019-03-21T23:40:19.838Z,65.36
2019-03-21T23:43:23.742Z,65.35
2019-03-21T23:46:25.662Z,65.26
2019-03-21T23:49:27.588Z,65.53
2019-03-21T23:52:29.491Z,65.53
2019-03-21T23:55:31.511Z,65.12
2019-03-21T23:58:33.533Z,65.61
